Time;durP1;ratioP1;P1;durP2;ratioP2;P2;SDS_P1;SDS_P2;PMS_P1;PMS_P2;Temp;Humidity;BMP_temperature;BMP_pressure;BME280_temperature;BME280_humidity;BME280_pressure;Samples;Min_cycle;Max_cycle;Signal;HPM_P1;HPM_P2
2022/08/15 00:01:00;;;;;;;5.20;3.05;;;23.90;73.80;;;24.60;72.56;99742.38;5145452;28;20039;-66
2022/08/15 00:03:37;;;;;;;3.45;2.80;;;23.90;73.60;;;24.60;72.87;99753.03;5145484;28;20047;-67
2022/08/15 00:06:15;;;;;;;4.10;3.10;;;23.90;73.90;;;24.58;72.58;99749.56;5145419;28;20138;-67
2022/08/15 00:08:52;;;;;;;3.65;2.90;;;23.90;73.90;;;24.55;72.77;99744.34;5128286;28;20050;-66
2022/08/15 00:11:31;;;;;;;4.30;3.25;;;23.90;74.10;;;24.52;73.52;99744.47;5145435;28;20228;-67
2022/08/15 00:14:10;;;;;;;3.80;3.10;;;23.80;74.60;;;24.50;73.37;99746.31;5127994;28;20499;-67
2022/08/15 00:16:44;;;;;;;3.80;3.08;;;23.80;74.60;;;24.53;72.67;99740.88;5145525;28;20046;-66
2022/08/15 00:19:18;;;;;;;;;;;23.90;74.20;;;24.54;73.13;99745.28;5145846;28;20082;-66
2022/08/15 00:21:59;;;;;;;3.75;2.97;;;23.80;74.70;;;24.55;73.58;99738.16;5145281;28;19922;-67
2022/08/15 00:24:35;;;;;;;4.60;3.28;;;23.90;74.90;;;24.53;73.73;99746.22;5145218;28;20075;-67
2022/08/15 00:27:09;;;;;;;4.43;3.20;;;23.80;75.60;;;24.52;72.53;99749.81;5145126;28;20455;-66
2022/08/15 00:29:41;;;;;;;3.92;3.22;;;23.80;74.20;;;24.52;71.27;99741.81;5128031;28;20185;-66
2022/08/15 00:32:19;;;;;;;4.45;3.08;;;23.80;73.50;;;24.54;71.00;99758.59;5127778;28;20093;-67
2022/08/15 00:34:53;;;;;;;4.97;3.58;;;23.90;73.10;;;24.56;70.41;99761.19;5145172;28;20047;-67
2022/08/15 00:37:25;;;;;;;4.28;3.33;;;23.90;72.70;;;24.58;69.87;99765.56;5127686;28;20061;-67
2022/08/15 00:39:59;;;;;;;3.75;2.90;;;23.90;72.40;;;24.60;69.33;99755.69;5127619;28;20276;-67
2022/08/15 00:42:31;;;;;;;4.30;3.47;;;23.90;72.00;;;24.64;69.03;99759.97;5127440;28;20141;-66
2022/08/15 00:45:05;;;;;;;4.43;3.58;;;24.00;71.80;;;24.66;68.46;99753.72;5145113;28;20078;-66
2022/08/15 00:47:37;;;;;;;4.72;3.83;;;24.00;71.40;;;24.70;68.57;99755.31;5127330;28;20415;-66
2022/08/15 00:50:13;;;;;;;4.55;3.63;;;24.00;71.30;;;24.71;68.20;99760.59;5145057;28;20046;-67
2022/08/15 00:52:45;;;;;;;5.13;3.90;;;24.10;71.20;;;24.71;68.29;99754.38;5127508;28;20085;-67
2022/08/15 00:55:19;;;;;;;6.53;3.50;;;24.10;71.10;;;24.70;68.18;99758.84;5144580;28;20047;-66
2022/08/15 00:57:51;;;;;;;4.72;3.60;;;24.10;71.20;;;24.71;68.79;99749.06;5144743;28;20492;-67
2022/08/15 01:00:29;;;;;;;4.03;3.25;;;24.10;71.40;;;24.72;69.11;99750.81;5144909;28;20043;-67
2022/08/15 01:03:06;;;;;;;3.70;2.97;;;24.10;71.80;;;24.70;69.16;99755.31;5127102;28;20503;-67
2022/08/15 01:05:40;;;;;;;4.55;3.63;;;24.10;71.70;;;24.69;68.50;99756.25;5143369;28;20082;-66
2022/08/15 01:08:16;;;;;;;3.83;3.15;;;24.00;71.30;;;24.66;68.49;99753.72;5127144;28;20058;-68
2022/08/15 01:10:50;;;;;;;4.75;3.80;;;24.00;71.20;;;24.63;68.01;99760.03;5127333;28;20050;-66
2022/08/15 01:13:22;;;;;;;4.85;3.53;;;24.00;70.90;;;24.62;67.67;99764.50;5127299;28;20039;-67
2022/08/15 01:15:55;;;;;;;5.18;3.83;;;23.90;70.70;;;24.61;67.35;99765.41;5127109;28;20047;-66
2022/08/15 01:18:28;;;;;;;5.32;3.53;;;23.90;70.50;;;24.60;67.27;99763.69;5127105;28;20130;-67
2022/08/15 01:21:09;;;;;;;4.55;3.55;;;23.90;70.20;;;24.60;66.51;99763.69;5127200;28;20046;-67
2022/08/15 01:23:56;;;;;;;3.88;3.30;;;23.90;69.90;;;24.62;66.79;99760.97;5127141;28;20051;-66
2022/08/15 01:26:30;;;;;;;5.15;3.85;;;24.00;69.90;;;24.62;66.56;99763.63;5127137;28;20072;-66
2022/08/15 01:29:03;;;;;;;4.45;3.33;;;23.90;69.70;;;24.61;66.34;99765.41;5126961;28;20411;-66
2022/08/15 01:31:36;;;;;;;4.72;3.47;;;24.00;69.60;;;24.62;65.93;99771.63;5127307;28;20065;-66
2022/08/15 01:34:08;;;;;;;5.25;3.42;;;24.00;69.30;;;24.62;65.98;99771.63;5127381;28;20045;-67
2022/08/15 01:36:41;;;;;;;4.50;3.53;;;24.00;69.40;;;24.62;66.24;99769.81;5144382;28;20043;-66
2022/08/15 01:39:20;;;;;;;5.07;3.13;;;23.90;69.40;;;24.60;65.40;99769.00;5127096;28;20086;-66
2022/08/15 01:42:00;;;;;;;4.50;3.28;;;23.90;69.10;;;24.60;65.91;99765.50;5127027;28;20145;-67
2022/08/15 01:44:37;;;;;;;3.78;3.17;;;23.90;69.30;;;24.59;66.47;99769.09;5143168;28;20097;-67
2022/08/15 01:47:18;;;;;;;4.07;2.80;;;23.90;69.70;;;24.58;65.74;99765.56;5126634;28;20442;-67
2022/08/15 01:49:56;;;;;;;3.42;3.08;;;23.90;69.20;;;24.59;64.50;99783.28;5144547;28;20133;-67
2022/08/15 01:52:38;;;;;;;3.63;3.13;;;23.90;68.30;;;24.59;64.37;99780.59;5143038;28;20054;-66
2022/08/15 01:55:13;;;;;;;3.53;3.10;;;23.90;68.30;;;24.61;64.13;99780.53;5127149;28;20079;-66
2022/08/15 01:57:47;;;;;;;3.38;2.78;;;23.90;68.10;;;24.62;65.15;99783.13;5126531;28;20082;-68
2022/08/15 02:00:22;;;;;;;3.22;2.58;;;23.90;68.60;;;24.62;64.96;99780.47;5130308;28;20484;-66
2022/08/15 02:02:59;;;;;;;3.50;2.80;;;23.90;68.50;;;24.60;64.88;99776.16;5130298;28;20504;-67
2022/08/15 02:05:31;;;;;;;3.53;2.70;;;24.00;68.50;;;24.61;64.58;99778.75;5147822;28;20043;-66
2022/08/15 02:08:04;;;;;;;3.33;2.97;;;23.90;68.20;;;24.62;64.31;99772.47;5130125;28;20047;-66
2022/08/15 02:10:37;;;;;;;4.18;2.97;;;23.90;68.30;;;24.62;64.62;99782.28;5130221;28;20053;-68
2022/08/15 02:13:11;;;;;;;3.63;2.90;;;24.00;69.00;;;24.61;64.34;99772.53;5130322;28;20101;-67
2022/08/15 02:15:43;;;;;;;3.53;2.92;;;24.00;68.10;;;24.59;64.57;99769.94;5130199;28;20043;-67
2022/08/15 02:18:15;;;;;;;3.67;2.97;;;23.90;68.80;;;24.60;63.70;99779.69;5130278;28;20051;-67
2022/08/15 02:20:49;;;;;;;3.88;3.13;;;23.90;67.80;;;24.59;64.16;99771.75;5147439;28;20066;-67
2022/08/15 02:23:22;;;;;;;3.63;3.03;;;23.90;67.90;;;24.56;64.19;99778.03;5129925;28;20600;-67
2022/08/15 02:25:55;;;;;;;4.47;3.22;;;23.90;67.80;;;24.55;63.66;99778.97;5129836;28;20047;-66
2022/08/15 02:28:29;;;;;;;5.68;3.72;;;23.90;67.70;;;24.57;63.82;99785.09;5130100;28;20052;-67
2022/08/15 02:31:13;;;;;;;3.47;2.95;;;23.90;67.60;;;24.58;63.61;99777.97;5129892;28;20053;-67
2022/08/15 02:33:50;;;;;;;4.18;3.35;;;23.90;67.60;;;24.60;64.25;99779.69;5129792;28;20046;-69
2022/08/15 02:36:24;;;;;;;3.38;3.00;;;23.90;67.90;;;24.61;64.39;99770.75;5129770;28;20050;-67
2022/08/15 02:38:58;;;;;;;3.10;2.78;;;23.90;68.00;;;24.63;64.35;99771.53;5130113;28;20042;-66
2022/08/15 02:41:34;;;;;;;3.22;2.80;;;24.00;68.20;;;24.63;65.00;99768.88;5129733;28;20050;-66
2022/08/15 02:44:11;;;;;;;3.63;3.10;;;24.00;68.60;;;24.63;65.60;99765.34;5129709;28;20061;-66
2022/08/15 02:46:44;;;;;;;3.50;2.60;;;23.90;69.00;;;24.62;66.64;99766.28;5129508;28;20411;-66
2022/08/15 02:49:18;;;;;;;4.10;3.22;;;23.90;69.70;;;24.59;67.07;99761.09;5147120;28;20389;-67
2022/08/15 02:51:51;;;;;;;4.05;2.67;;;23.90;70.20;;;24.56;67.27;99748.75;5129430;28;20146;-68
2022/08/15 02:54:27;;;;;;;3.53;2.88;;;23.90;70.40;;;24.53;67.21;99748.00;5129504;28;20046;-68
2022/08/15 02:57:00;;;;;;;4.40;3.15;;;23.90;70.40;;;24.48;67.11;99747.31;5129397;28;20563;-67
2022/08/15 02:59:34;;;;;;;3.15;2.70;;;23.80;70.20;;;24.45;67.72;99748.31;5129523;28;20089;-66
2022/08/15 03:02:07;;;;;;;;;;;23.80;70.60;;;24.42;68.20;99737.75;5129811;28;20057;-67
2022/08/15 03:04:40;;;;;;;3.70;2.90;;;23.80;71.00;;;24.41;69.08;99730.69;5129754;28;19958;-67
2022/08/15 03:07:15;;;;;;;4.05;2.67;;;23.80;71.80;;;24.41;69.75;99740.50;5128898;28;20144;-68
2022/08/15 03:09:47;;;;;;;3.10;2.70;;;23.80;72.30;;;24.39;70.05;99731.66;5145922;28;20053;-67
2022/08/15 03:12:23;;;;;;;3.88;2.90;;;23.70;72.40;;;24.36;70.29;99735.34;5129071;28;20066;-67
2022/08/15 03:14:57;;;;;;;2.85;2.65;;;23.70;72.70;;;24.35;70.02;99737.13;5128984;28;20047;-67
2022/08/15 03:17:30;;;;;;;3.25;2.80;;;23.70;72.70;;;24.37;70.52;99739.72;5129043;28;20054;-68
2022/08/15 03:20:06;;;;;;;2.70;2.50;;;23.70;73.00;;;24.36;69.77;99738.84;5128957;28;20538;-67
2022/08/15 03:22:42;;;;;;;2.80;2.50;;;23.70;72.50;;;24.38;69.78;99735.25;5129280;28;20055;-68
2022/08/15 03:25:17;;;;;;;3.10;2.80;;;23.70;72.60;;;24.37;68.35;99734.41;5128804;28;20047;-67
2022/08/15 03:27:50;;;;;;;4.28;3.08;;;23.70;71.50;;;24.38;67.57;99729.94;5128829;28;20057;-66
2022/08/15 03:30:24;;;;;;;3.83;2.83;;;23.70;71.00;;;24.39;67.81;99731.66;5146315;28;20042;-66
2022/08/15 03:33:00;;;;;;;3.78;3.03;;;23.80;71.00;;;24.36;67.79;99725.53;5128945;28;20046;-67
2022/08/15 03:35:42;;;;;;;4.63;3.30;;;23.80;71.10;;;24.38;67.98;99724.63;5128688;28;20054;-67
2022/08/15 03:38:16;;;;;;;3.80;2.92;;;23.80;71.00;;;24.38;68.88;99725.47;5128621;28;20047;-67
2022/08/15 03:40:51;;;;;;;4.53;3.03;;;23.80;71.80;;;24.36;69.27;99732.66;5128646;28;20053;-67
2022/08/15 03:43:28;;;;;;;3.13;2.83;;;23.70;72.10;;;24.35;70.22;99729.13;5128488;28;20519;-66
2022/08/15 03:46:07;;;;;;;5.65;2.85;;;23.70;72.70;;;24.32;71.07;99723.00;5128395;28;20053;-67
2022/08/15 03:48:43;;;;;;;3.50;2.67;;;23.70;73.30;;;24.31;71.46;99734.59;5128744;28;20042;-66
2022/08/15 03:51:18;;;;;;;4.53;2.78;;;23.70;73.60;;;24.28;71.25;99724.94;5128417;28;20055;-67
2022/08/15 03:53:56;;;;;;;3.38;2.70;;;23.60;73.70;;;24.25;71.67;99726.84;5128433;28;20051;-67
2022/08/15 03:56:32;;;;;;;4.05;3.00;;;23.60;74.00;;;24.21;71.78;99733.22;5144176;28;20051;-67
2022/08/15 03:59:04;;;;;;;3.70;3.10;;;23.60;74.30;;;24.20;71.00;99736.81;5144527;28;20049;-67
2022/08/15 04:01:42;;;;;;;3.97;2.92;;;23.60;73.80;;;24.20;70.20;99732.38;5128312;28;20050;-68
2022/08/15 04:04:14;;;;;;;3.15;2.65;;;23.60;73.20;;;24.23;70.18;99742.03;5145327;28;20043;-67
2022/08/15 04:06:52;;;;;;;4.35;2.83;;;23.60;73.30;;;24.23;71.16;99736.69;5128072;28;20053;-67
2022/08/15 04:09:24;;;;;;;4.13;3.13;;;23.60;73.90;;;24.23;71.38;99731.38;5128255;28;20106;-66
2022/08/15 04:11:58;;;;;;;3.13;2.53;;;23.60;74.10;;;24.22;71.20;99732.31;5128105;28;20055;-66
2022/08/15 04:14:37;;;;;;;;;;;23.60;73.90;;;24.23;70.96;99728.69;5128649;28;20531;-66
2022/08/15 04:17:15;;;;;;;4.18;3.13;;;23.60;73.70;;;24.23;71.11;99723.38;5127828;28;19926;-67
2022/08/15 04:19:48;;;;;;;3.30;2.45;;;23.60;73.90;;;24.22;71.36;99732.31;5127939;28;20058;-66
2022/08/15 04:22:31;;;;;;;2.75;2.42;;;23.60;74.10;;;24.19;71.55;99730.63;5127752;28;20057;-67
2022/08/15 04:25:07;;;;;;;2.92;2.60;;;23.60;74.40;;;24.17;71.15;99732.47;5145349;28;20411;-67
2022/08/15 04:27:40;;;;;;;4.03;3.05;;;23.50;74.10;;;24.17;71.78;99742.25;5127998;28;20059;-67
2022/08/15 04:30:13;;;;;;;3.15;2.45;;;23.50;74.30;;;24.14;71.92;99743.25;5128128;28;20623;-67
2022/08/15 04:32:47;;;;;;;3.55;2.50;;;23.50;74.50;;;24.15;71.89;99757.41;5127558;28;20467;-67
2022/08/15 04:35:19;;;;;;;4.65;2.78;;;23.50;74.50;;;24.14;72.66;99758.34;5127042;28;20054;-68
2022/08/15 04:37:52;;;;;;;3.75;2.65;;;23.50;75.10;;;24.14;72.78;99761.00;5127448;28;20078;-67
2022/08/15 04:40:24;;;;;;;3.67;2.72;;;23.50;75.30;;;24.13;73.14;99760.16;5144957;28;20070;-68
2022/08/15 04:42:58;;;;;;;3.03;2.67;;;23.50;75.70;;;24.12;73.73;99763.72;5145000;28;20445;-67
2022/08/15 04:45:34;;;;;;;4.43;3.15;;;23.50;76.20;;;24.09;73.36;99762.03;5127754;28;20050;-67
2022/08/15 04:48:14;;;;;;;4.40;2.92;;;23.50;76.00;;;24.09;72.92;99767.38;5151287;23;20042;-68
2022/08/15 04:50:49;;;;;;;4.40;3.33;;;23.50;75.60;;;24.11;73.20;99764.63;5146722;28;20525;-67
2022/08/15 04:53:24;;;;;;;4.47;3.28;;;23.50;76.00;;;24.08;72.92;99765.63;5136734;28;20051;-68
2022/08/15 04:56:00;;;;;;;3.95;3.05;;;23.50;75.60;;;24.08;72.86;99762.97;5125594;28;20556;-68
2022/08/15 04:58:32;;;;;;;3.58;3.00;;;23.50;75.60;;;24.09;73.81;99766.50;5123614;29;20134;-68
2022/08/15 05:01:10;;;;;;;4.57;3.50;;;23.50;76.30;;;24.08;74.19;99765.63;5107650;29;20054;-68
2022/08/15 05:03:46;;;;;;;5.38;3.47;;;23.50;76.70;;;24.08;74.52;99775.41;5123178;29;20094;-68
2022/08/15 05:06:19;;;;;;;3.90;3.20;;;23.50;77.10;;;24.11;74.11;99772.63;5127036;28;20074;-67
2022/08/15 05:08:52;;;;;;;3.75;3.10;;;23.50;76.80;;;24.13;73.34;99777.91;5128628;28;20658;-68
2022/08/15 05:11:27;;;;;;;3.53;2.60;;;23.50;76.20;;;24.17;73.03;99768.88;5127305;28;20403;-70
2022/08/15 05:14:03;;;;;;;4.70;2.72;;;23.50;76.00;;;24.19;73.07;99772.34;5127115;28;20090;-68
2022/08/15 05:16:39;;;;;;;3.42;2.85;;;23.50;76.00;;;24.21;72.96;99775.84;5127206;28;20050;-68
2022/08/15 05:19:13;;;;;;;4.20;3.05;;;23.60;76.10;;;24.24;73.00;99775.69;5127228;28;20047;-69
2022/08/15 05:21:46;;;;;;;4.00;3.00;;;23.60;76.10;;;24.26;72.52;99774.75;5127150;28;20110;-68
2022/08/15 05:24:21;;;;;;;5.18;3.25;;;23.60;75.60;;;24.31;71.66;99774.53;5126957;28;20043;-69
2022/08/15 05:26:53;;;;;;;5.45;2.72;;;23.70;75.20;;;24.35;71.54;99776.22;5126935;28;20047;-69
2022/08/15 05:29:26;;;;;;;4.07;2.90;;;23.70;75.00;;;24.40;71.48;99786.69;5127190;28;20415;-68
2022/08/15 05:31:59;;;;;;;5.38;3.00;;;23.80;74.80;;;24.47;70.80;99777.53;5127046;28;20515;-70
2022/08/15 05:34:32;;;;;;;4.82;3.30;;;23.80;74.50;;;24.57;70.76;99768.25;5129661;28;20042;-69
2022/08/15 05:37:05;;;;;;;4.35;3.00;;;23.90;74.50;;;24.69;71.15;99774.91;5130615;28;20055;-68
2022/08/15 05:39:38;;;;;;;6.70;3.20;;;24.00;75.40;;;24.82;69.73;99774.34;5130861;28;20054;-71
2022/08/15 05:42:28;;;;;;;8.68;3.80;;;24.10;73.80;;;25.01;68.86;99782.47;5131133;28;20057;-69
2022/08/15 05:45:09;;;;;;;12.93;4.30;;;24.30;73.00;;;25.36;67.03;99777.53;5130657;28;20121;-69
2022/08/15 05:47:53;;;;;;;6.35;3.42;;;24.50;71.60;;;25.97;64.45;99782.94;5130275;28;20053;-69
2022/08/15 05:50:34;;;;;;;7.45;3.20;;;24.90;70.20;;;26.49;63.76;99791.28;5130763;28;20050;-71
2022/08/15 05:53:29;;;;;;;7.10;3.08;;;25.40;69.30;;;27.04;61.93;99793.97;5130594;28;20129;-69
2022/08/15 05:56:17;;;;;;;5.63;3.00;;;25.90;68.20;;;27.24;61.62;99801.91;5130399;28;20138;-68
2022/08/15 05:58:56;;;;;;;8.00;2.95;;;26.20;67.40;;;27.20;61.40;99800.34;5130562;28;20050;-69
2022/08/15 06:01:35;;;;;;;7.13;2.47;;;26.30;67.50;;;27.06;61.44;99800.19;5130319;28;20047;-70
2022/08/15 06:04:15;;;;;;;3.30;2.10;;;26.30;66.40;;;26.93;61.34;99791.84;5130329;28;20397;-70
2022/08/15 06:06:50;;;;;;;3.35;2.63;;;26.20;66.40;;;26.86;61.39;99792.19;5130055;28;20058;-69
2022/08/15 06:09:35;;;;;;;5.97;2.55;;;26.10;66.20;;;26.79;61.64;99789.81;5130479;28;20050;-69
2022/08/15 06:12:14;;;;;;;3.70;2.47;;;26.10;66.40;;;26.77;61.94;99794.38;5130001;28;20061;-69
2022/08/15 06:14:50;;;;;;;3.42;2.17;;;26.00;66.50;;;26.81;62.26;99794.25;5130382;28;20043;-70
2022/08/15 06:17:35;;;;;;;5.25;2.60;;;26.10;66.90;;;26.85;61.76;99803.81;5129565;28;20050;-69
2022/08/15 06:20:16;;;;;;;2.40;2.20;;;26.10;66.60;;;26.86;61.78;99795.72;5130236;28;20101;-70
2022/08/15 06:23:05;;;;;;;3.03;2.55;;;26.10;66.40;;;26.96;62.91;99790.81;5128587;28;20062;-61
2022/08/15 06:26:11;;;;;;;3.65;2.63;;;26.20;67.30;;;26.98;62.33;99788.94;5130115;28;20055;-60
2022/08/15 06:29:04;;;;;;;3.80;2.33;;;26.20;66.90;;;26.95;61.81;99789.09;5129972;28;20524;-59
2022/08/15 06:31:40;;;;;;;3.45;2.17;;;26.20;66.40;;;27.07;61.96;99788.53;5130054;28;20057;-60
2022/08/15 06:34:29;;;;;;;3.78;2.33;;;26.30;66.50;;;27.40;61.74;99795.81;5129812;28;20097;-59
2022/08/15 06:37:11;;;;;;;5.05;2.67;;;26.50;66.70;;;27.98;60.75;99787.50;5146965;28;20086;-60
2022/08/15 06:40:01;;;;;;;4.85;2.42;;;26.90;66.30;;;28.53;58.03;99795.25;5129709;28;20042;-60
2022/08/15 06:42:37;;;;;;;4.22;2.45;;;27.30;65.00;;;28.72;57.66;99795.97;5129745;28;20511;-60
2022/08/15 06:45:18;;;;;;;5.03;2.45;;;27.60;63.60;;;28.88;58.13;99802.19;5129733;28;20075;-72
2022/08/15 06:47:57;;;;;;;4.30;2.40;;;27.80;63.90;;;28.94;58.04;99803.69;5129198;28;20051;-69
2022/08/15 06:50:44;;;;;;;3.90;2.55;;;27.90;63.60;;;28.82;58.54;99807.94;5129764;28;20074;-70
2022/08/15 06:53:32;;;;;;;5.32;2.50;;;27.90;63.60;;;28.62;58.12;99805.47;5129429;28;20058;-70
2022/08/15 06:56:13;;;;;;;5.38;2.70;;;27.80;63.20;;;28.43;58.86;99805.63;5129255;28;20051;-72
2022/08/15 06:58:52;;;;;;;3.80;2.40;;;27.60;63.60;;;28.21;59.44;99811.22;5129532;28;20058;-71
2022/08/15 07:01:41;;;;;;;2.83;2.00;;;27.40;63.90;;;28.01;59.46;99811.44;5129730;28;20424;-73
2022/08/15 07:04:22;;;;;;;3.67;2.30;;;27.30;64.00;;;27.82;59.54;99809.69;5129109;28;20046;-73
2022/08/15 07:07:03;;;;;;;3.10;2.10;;;27.10;64.10;;;27.67;60.12;99802.44;5129404;28;20051;-69
2022/08/15 07:09:48;;;;;;;3.17;2.35;;;27.00;64.50;;;27.56;60.63;99796.75;5125396;28;20054;-70
2022/08/15 07:12:30;;;;;;;3.33;2.15;;;26.90;64.90;;;27.43;60.87;99798.31;5124728;28;20046;-66
2022/08/15 07:15:12;;;;;;;3.70;2.22;;;26.70;65.10;;;27.34;61.31;99790.78;5145161;28;20043;-66
2022/08/15 07:17:50;;;;;;;3.60;2.30;;;26.60;65.30;;;27.30;61.60;99801.63;5145375;28;20046;-65
2022/08/15 07:20:23;;;;;;;4.10;2.30;;;26.60;65.70;;;27.26;61.57;99802.72;5129140;28;20053;-66
2022/08/15 07:22:55;;;;;;;3.88;2.30;;;26.50;65.70;;;27.17;61.70;99804.97;5130025;28;20050;-69
2022/08/15 07:25:32;;;;;;;3.45;2.10;;;26.50;65.80;;;27.11;61.89;99806.13;5128828;28;20039;-68
2022/08/15 07:28:10;;;;;;;3.65;2.58;;;26.40;65.80;;;27.08;61.99;99806.31;5128635;28;20047;-68
2022/08/15 07:30:48;;;;;;;3.53;2.20;;;26.40;65.90;;;27.05;62.29;99811.78;5128943;28;20133;-68
2022/08/15 07:33:36;;;;;;;4.07;2.30;;;26.30;66.00;;;26.98;62.13;99800.47;5128689;28;20113;-68
2022/08/15 07:36:20;;;;;;;4.72;2.60;;;26.30;66.00;;;26.91;62.31;99806.22;5145937;28;20053;-68
2022/08/15 07:38:53;;;;;;;3.05;2.20;;;26.20;66.10;;;26.85;62.11;99809.16;5129004;28;20051;-68
2022/08/15 07:41:30;;;;;;;3.10;2.10;;;26.20;66.20;;;26.76;62.31;99811.34;5128096;28;20057;-68
2022/08/15 07:44:21;;;;;;;3.05;2.33;;;26.10;66.10;;;26.67;62.40;99811.81;5120370;28;20066;-68
2022/08/15 07:46:59;;;;;;;2.90;2.05;;;26.00;66.30;;;26.63;62.78;99820.88;5125840;28;20050;-68
2022/08/15 07:49:37;;;;;;;3.38;2.17;;;26.00;66.50;;;26.61;62.82;99828.13;5128542;28;20101;-68
2022/08/15 07:52:23;;;;;;;2.40;2.03;;;26.00;66.60;;;26.57;63.02;99829.19;5120685;29;20692;-70
2022/08/15 07:54:58;;;;;;;;;;;25.90;66.70;;;26.53;62.94;99832.94;5122265;28;20138;-68
2022/08/15 07:57:37;;;;;;;3.15;2.40;;;25.90;66.60;;;26.49;63.15;99834.91;5127531;28;19968;-68
2022/08/15 08:00:25;;;;;;;2.95;2.05;;;25.80;66.70;;;26.48;63.31;99837.66;5128415;28;20076;-67
2022/08/15 08:03:09;;;;;;;3.13;1.88;;;25.80;66.80;;;26.48;63.37;99835.84;5128277;28;20055;-68
2022/08/15 08:05:52;;;;;;;2.17;1.90;;;25.80;67.00;;;26.47;63.37;99830.53;5127918;28;20043;-68
2022/08/15 08:08:33;;;;;;;2.00;1.80;;;25.80;66.90;;;26.48;63.43;99834.97;5125486;28;20074;-69
2022/08/15 08:11:12;;;;;;;2.10;1.90;;;25.80;67.10;;;26.46;63.44;99832.34;5120034;28;20047;-67
2022/08/15 08:13:53;;;;;;;2.53;2.08;;;25.80;67.10;;;26.46;63.57;99836.81;5144436;28;20038;-67
2022/08/15 08:16:33;;;;;;;3.40;2.30;;;25.70;67.20;;;26.47;63.66;99830.53;5124866;28;20145;-68
2022/08/15 08:19:13;;;;;;;4.40;2.20;;;25.80;67.30;;;26.48;63.40;99837.66;5121320;29;20051;-68
2022/08/15 08:21:57;;;;;;;5.57;1.83;;;25.80;67.00;;;26.48;63.27;99835.84;5108039;29;20545;-68
2022/08/15 08:24:49;;;;;;;2.25;2.05;;;25.80;67.00;;;26.48;63.67;99842.97;5107727;29;20039;-68
2022/08/15 08:27:38;;;;;;;2.33;1.90;;;25.80;67.30;;;26.50;63.88;99839.28;5118603;28;20544;-68
2022/08/15 08:30:19;;;;;;;2.78;1.98;;;25.80;67.50;;;26.54;63.83;99848.06;5127315;28;20134;-68
2022/08/15 08:32:58;;;;;;;2.88;1.90;;;25.80;67.50;;;26.55;63.71;99847.09;5145107;28;20053;-68
2022/08/15 08:35:40;;;;;;;3.33;1.90;;;25.80;67.30;;;26.54;63.52;99848.06;5145236;28;20053;-69
2022/08/15 08:38:31;;;;;;;2.38;2.08;;;25.90;67.40;;;26.51;64.17;99848.16;5144718;28;20049;-68
2022/08/15 08:44:18;;;;;;;4.95;1.90;;;25.80;68.40;;;26.49;64.54;99839.38;5144206;28;20079;-68
2022/08/15 08:47:16;;;;;;;2.47;1.83;;;25.80;68.00;;;26.49;64.67;99834.91;5144496;28;20074;-68
2022/08/15 08:50:07;;;;;;;2.72;2.10;;;25.80;68.10;;;26.50;64.96;99835.75;5144853;28;20054;-68
2022/08/15 08:52:46;;;;;;;2.35;2.08;;;25.80;68.20;;;26.51;65.39;99834.81;5143986;28;20066;-68
2022/08/15 08:55:22;;;;;;;2.00;1.80;;;25.80;68.50;;;26.54;65.62;99844.47;5143753;28;20122;-68
2022/08/15 08:58:02;;;;;;;1.92;1.63;;;25.80;69.40;;;26.56;65.21;99840.81;5137604;28;20231;-68
2022/08/15 09:00:43;;;;;;;2.17;1.80;;;25.80;68.60;;;26.57;65.07;99841.69;5142243;28;20142;-68
2022/08/15 09:03:19;;;;;;;2.70;2.25;;;25.80;68.50;;;26.60;65.42;99841.53;5134460;28;20051;-67
2022/08/15 09:05:55;;;;;;;2.50;1.98;;;25.90;68.70;;;26.61;65.28;99846.84;5136841;28;20492;-68
2022/08/15 09:08:33;;;;;;;2.88;1.80;;;25.90;68.70;;;26.62;65.24;99845.88;5142684;28;20050;-68
2022/08/15 09:11:11;;;;;;;2.92;2.00;;;25.90;68.80;;;26.64;65.38;99848.47;5146344;28;20035;-68
2022/08/15 09:13:45;;;;;;;3.30;2.08;;;25.90;68.70;;;26.66;65.29;99850.13;5117372;28;20042;-67
2022/08/15 09:16:24;;;;;;;2.67;1.70;;;25.90;68.70;;;26.72;65.04;99851.66;5145907;28;20042;-70
2022/08/15 09:19:15;;;;;;;3.10;2.08;;;25.90;68.50;;;26.75;64.84;99855.06;5141808;28;20662;-70
2022/08/15 09:21:50;;;;;;;3.40;2.28;;;26.00;68.40;;;26.80;65.11;99854.88;5146980;28;20042;-71
2022/08/15 09:24:24;;;;;;;2.83;2.20;;;26.00;68.60;;;26.85;64.91;99865.31;5147740;28;20042;-66
2022/08/15 09:27:05;;;;;;;2.97;2.40;;;26.10;68.40;;;26.87;64.60;99866.13;5147582;28;20133;-68
2022/08/15 09:29:42;;;;;;;3.88;2.40;;;26.00;68.20;;;26.92;64.64;99861.41;5147763;28;20134;-67
2022/08/15 09:32:33;;;;;;;2.65;2.10;;;26.10;68.30;;;27.01;64.70;99864.53;5147643;28;20077;-67
2022/08/15 09:35:37;;;;;;;2.15;1.77;;;26.20;68.40;;;27.16;64.98;99870.97;5148007;28;20042;-67
2022/08/15 09:38:43;;;;;;;3.53;2.38;;;26.30;68.60;;;27.26;64.27;99869.63;5148435;28;20126;-67
2022/08/15 09:41:40;;;;;;;2.58;2.20;;;26.40;68.30;;;27.31;63.43;99872.03;5141967;28;20059;-67
2022/08/15 09:44:51;;;;;;;4.00;1.98;;;26.50;67.60;;;27.29;63.47;99872.13;5130679;28;20520;-69
2022/08/15 09:47:47;;;;;;;3.78;1.83;;;26.50;67.40;;;27.28;63.41;99867.72;5147981;28;20419;-68
2022/08/15 09:50:40;;;;;;;2.95;2.22;;;26.50;67.30;;;27.23;63.58;99872.41;5148544;28;20105;-67
2022/08/15 09:53:40;;;;;;;2.72;2.17;;;26.50;67.50;;;27.19;63.55;99877.97;5130524;28;20149;-67
2022/08/15 09:56:19;;;;;;;4.13;2.30;;;26.50;67.30;;;27.16;63.57;99881.69;5147871;28;20130;-67
2022/08/15 09:58:54;;;;;;;3.40;2.22;;;26.40;67.30;;;27.13;63.10;99872.94;5148030;28;20047;-69
2022/08/15 10:01:29;;;;;;;2.20;1.98;;;26.40;67.80;;;27.10;63.19;99878.44;5147962;28;20130;-67
2022/08/15 10:04:07;;;;;;;2.53;2.33;;;26.40;67.10;;;27.07;63.41;99879.47;5147862;28;20042;-70
2022/08/15 10:07:13;;;;;;;2.40;1.80;;;26.30;67.10;;;27.05;63.63;99882.19;5147812;28;20053;-68
2022/08/15 10:10:12;;;;;;;3.17;2.08;;;26.30;67.30;;;27.02;64.20;99878.78;5146879;28;20058;-67
2022/08/15 10:13:21;;;;;;;3.28;2.25;;;26.30;67.70;;;26.97;64.80;99880.78;5147629;28;20055;-69
2022/08/15 10:15:55;;;;;;;3.60;2.53;;;26.30;68.20;;;26.90;65.19;99882.00;5147568;28;20557;-68
2022/08/15 10:19:05;;;;;;;;;;;26.20;68.30;;;26.79;65.61;99883.38;5131063;28;20331;-69
2022/08/15 10:21:40;;;;;;;3.67;2.40;;;26.10;68.70;;;26.68;66.13;99883.03;5147749;28;20205;-70
2022/08/15 10:24:28;;;;;;;2.63;2.00;;;26.00;69.00;;;26.58;65.37;99881.69;5164719;28;20129;-68
2022/08/15 10:27:22;;;;;;;3.55;2.47;;;26.00;68.50;;;26.47;66.14;99894.66;5144388;28;20047;-74
2022/08/15 10:30:16;;;;;;;5.13;2.45;;;25.90;69.10;;;26.43;66.91;99903.78;5140318;28;20049;-70
2022/08/15 10:32:50;;;;;;;3.75;2.53;;;25.80;69.80;;;26.40;67.62;99896.75;5108055;28;20060;-70
2022/08/15 10:35:36;;;;;;;2.70;2.25;;;25.80;70.10;;;26.32;68.21;99895.31;5166862;28;20038;-69
2022/08/15 10:38:13;;;;;;;4.90;2.50;;;25.70;70.50;;;26.28;68.75;99899.06;5162961;28;20108;-68
2022/08/15 10:40:58;;;;;;;2.55;2.20;;;25.60;71.00;;;26.26;68.48;99893.78;5148998;28;20137;-69
2022/08/15 10:44:01;;;;;;;3.40;2.35;;;25.60;71.60;;;26.28;68.49;99899.94;5167238;28;20046;-68
2022/08/15 10:46:57;;;;;;;2.60;2.13;;;25.60;71.00;;;26.30;68.65;99891.88;5162501;28;20054;-68
2022/08/15 10:49:40;;;;;;;3.03;2.33;;;25.60;71.10;;;26.28;69.19;99899.06;5279649;23;20050;-69
2022/08/15 10:52:35;;;;;;;4.65;2.03;;;25.60;71.50;;;26.21;68.30;99899.34;5168623;28;20038;-69
2022/08/15 10:55:29;;;;;;;4.43;2.40;;;25.60;70.90;;;26.16;69.76;99905.81;5169666;28;20038;-68
2022/08/15 10:58:12;;;;;;;2.72;2.30;;;25.50;71.70;;;26.08;71.59;99908.84;5149239;28;20141;-68
2022/08/15 11:00:53;;;;;;;2.33;2.13;;;25.50;73.00;;;25.95;72.71;99923.59;5168166;28;20503;-67
2022/08/15 11:03:34;;;;;;;2.60;2.10;;;25.40;73.80;;;25.85;72.08;99911.59;5169685;28;20054;-67
2022/08/15 11:06:12;;;;;;;3.00;2.13;;;25.30;73.20;;;25.75;73.50;99919.09;5168294;28;20048;-54
2022/08/15 11:08:47;;;;;;;2.88;2.17;;;25.20;74.40;;;25.68;73.24;99913.13;5142755;28;20042;-57
2022/08/15 11:11:24;;;;;;;3.50;2.40;;;25.20;74.40;;;25.66;73.63;99927.47;5167638;28;20046;-54
2022/08/15 11:14:02;;;;;;;3.13;2.50;;;25.10;74.60;;;25.59;73.58;99925.97;5155781;28;20041;-53